Time;durP1;ratioP1;P1;durP2;ratioP2;P2;SDS_P1;SDS_P2;PMS_P1;PMS_P2;Temp;Humidity;BMP_temperature;BMP_pressure;BME280_temperature;BME280_humidity;BME280_pressure;Samples;Min_cycle;Max_cycle;Signal;HPM_P1;HPM_P2
2022/11/22 00:01:22;;;;;;;24.37;4.40;;;6.40;99.90;;;;;;4972339;28;20200;-57
2022/11/22 00:03:50;;;;;;;30.30;4.57;;;6.40;99.90;;;;;;4967517;28;20261;-56
2022/11/22 00:06:19;;;;;;;18.53;4.47;;;6.30;99.90;;;;;;4983314;28;20197;-56
2022/11/22 00:08:47;;;;;;;23.60;3.97;;;6.30;99.90;;;;;;4986718;28;20187;-57
2022/11/22 00:11:17;;;;;;;21.00;5.00;;;6.30;99.90;;;;;;5003665;28;20226;-57
2022/11/22 00:13:46;;;;;;;18.47;3.50;;;6.20;99.90;;;;;;4984809;28;20203;-58
2022/11/22 00:16:14;;;;;;;25.93;4.60;;;6.20;99.90;;;;;;4986685;28;20195;-58
2022/11/22 00:18:43;;;;;;;25.67;3.90;;;6.10;99.90;;;;;;5021605;28;20199;-57
2022/11/22 00:21:11;;;;;;;19.77;4.10;;;6.10;99.90;;;;;;4977868;28;20580;-57
2022/11/22 00:23:39;;;;;;;12.87;3.53;;;6.10;99.90;;;;;;4972490;28;20202;-58
2022/11/22 00:26:10;;;;;;;19.47;4.07;;;6.10;99.90;;;;;;4997018;28;20206;-58
2022/11/22 00:28:40;;;;;;;25.37;4.03;;;6.00;99.90;;;;;;4982049;28;20279;-56
2022/11/22 00:31:09;;;;;;;19.70;4.03;;;6.00;99.90;;;;;;4983500;28;20191;-57
2022/11/22 00:33:37;;;;;;;22.03;3.80;;;6.00;99.90;;;;;;5004786;28;20199;-57
2022/11/22 00:36:07;;;;;;;19.80;3.60;;;6.00;99.90;;;;;;4984786;28;20281;-57
2022/11/22 00:38:37;;;;;;;20.03;3.70;;;6.00;99.90;;;;;;4980386;28;20237;-57
2022/11/22 00:41:08;;;;;;;26.03;4.30;;;6.00;99.90;;;;;;4971676;28;20714;-56
2022/11/22 00:43:36;;;;;;;14.73;3.30;;;6.00;99.90;;;;;;4980361;28;20661;-57
2022/11/22 00:46:05;;;;;;;16.43;3.67;;;5.90;99.90;;;;;;4971956;28;20680;-56
2022/11/22 00:48:34;;;;;;;17.90;3.97;;;5.90;99.90;;;;;;4974388;28;20230;-57
2022/11/22 00:51:02;;;;;;;12.37;4.40;;;5.90;99.90;;;;;;4980396;28;20206;-57
2022/11/22 00:53:30;;;;;;;16.17;3.43;;;5.90;99.90;;;;;;4977347;28;20215;-57
2022/11/22 00:55:59;;;;;;;18.53;3.90;;;5.90;99.90;;;;;;4977256;28;20198;-57
2022/11/22 00:58:28;;;;;;;19.70;3.97;;;5.90;99.90;;;;;;4984788;28;20207;-57
2022/11/22 01:00:56;;;;;;;23.87;3.80;;;5.80;99.90;;;;;;4976570;28;20195;-58
2022/11/22 01:03:26;;;;;;;21.60;4.17;;;5.80;99.90;;;;;;4978675;28;20210;-57
2022/11/22 01:05:54;;;;;;;15.73;3.60;;;5.80;99.90;;;;;;4981477;28;20206;-57
2022/11/22 01:08:23;;;;;;;20.90;4.43;;;5.70;99.90;;;;;;4978792;28;20196;-57
2022/11/22 01:10:56;;;;;;;21.13;3.30;;;5.70;99.90;;;;;;4984919;28;20486;-57
2022/11/22 01:13:25;;;;;;;15.17;3.27;;;5.70;99.90;;;;;;4981191;28;20708;-55
2022/11/22 01:15:53;;;;;;;14.93;3.70;;;5.60;99.90;;;;;;4973545;28;20210;-57
2022/11/22 01:18:22;;;;;;;20.17;3.50;;;5.60;99.90;;;;;;4982062;28;20225;-57
2022/11/22 01:20:52;;;;;;;19.30;3.87;;;5.50;99.90;;;;;;4980302;28;20694;-57
2022/11/22 01:23:20;;;;;;;18.57;3.47;;;5.50;99.90;;;;;;4975456;28;20837;-58
2022/11/22 01:25:48;;;;;;;16.07;3.63;;;5.50;99.90;;;;;;5008328;28;20638;-58
2022/11/22 01:28:17;;;;;;;15.03;3.53;;;5.50;99.90;;;;;;5003219;28;20199;-57
2022/11/22 01:30:46;;;;;;;16.83;3.20;;;5.50;99.90;;;;;;4980506;28;20195;-58
2022/11/22 01:33:14;;;;;;;11.53;3.10;;;5.50;99.90;;;;;;4974716;28;20545;-57
2022/11/22 01:35:43;;;;;;;16.33;3.47;;;5.50;99.90;;;;;;4999888;28;20680;-57
2022/11/22 01:38:12;;;;;;;17.47;3.53;;;5.50;99.90;;;;;;4984814;28;20198;-57
2022/11/22 01:40:41;;;;;;;16.70;3.97;;;5.40;99.90;;;;;;4975561;28;20543;-57
2022/11/22 01:43:16;;;;;;;17.20;3.93;;;5.40;99.90;;;;;;4977834;28;20203;-57
2022/11/22 01:45:52;;;;;;;13.77;3.80;;;5.40;99.90;;;;;;4970162;28;20313;-58
2022/11/22 01:48:35;;;;;;;21.70;3.60;;;5.30;99.90;;;;;;4974119;28;20309;-57
2022/11/22 01:51:06;;;;;;;20.23;3.63;;;5.30;99.90;;;;;;4974202;28;20199;-57
2022/11/22 01:53:38;;;;;;;20.37;3.80;;;5.20;99.90;;;;;;4980608;28;20269;-56
2022/11/22 01:56:11;;;;;;;17.80;3.00;;;5.20;99.90;;;;;;4974451;28;20202;-56
2022/11/22 01:58:43;;;;;;;15.83;3.80;;;5.20;99.90;;;;;;4973565;28;20216;-56
2022/11/22 02:01:11;;;;;;;9.23;3.10;;;5.20;99.90;;;;;;4971418;28;20195;-56
2022/11/22 02:03:42;;;;;;;18.40;3.60;;;5.10;99.90;;;;;;4973403;28;20195;-57
2022/11/22 02:06:11;;;;;;;17.57;3.50;;;5.20;99.90;;;;;;4975113;28;20215;-57
2022/11/22 02:08:47;;;;;;;14.37;3.00;;;5.10;99.90;;;;;;4972213;28;20202;-57
2022/11/22 02:11:17;;;;;;;11.90;2.77;;;5.10;99.90;;;;;;4974183;28;20223;-57
2022/11/22 02:13:46;;;;;;;14.83;3.07;;;5.10;99.90;;;;;;4986825;28;20207;-56
2022/11/22 02:16:16;;;;;;;13.70;2.83;;;5.10;99.90;;;;;;4977134;28;20336;-57
2022/11/22 02:18:44;;;;;;;11.63;3.10;;;5.10;99.90;;;;;;4989632;28;20543;-57
2022/11/22 02:21:13;;;;;;;7.87;2.80;;;5.10;99.90;;;;;;4972532;28;20586;-57
2022/11/22 02:23:54;;;;;;;13.33;2.80;;;5.10;99.90;;;;;;5005844;28;20191;-57
2022/11/22 02:26:27;;;;;;;10.03;3.33;;;5.00;99.90;;;;;;4978784;28;20210;-58
2022/11/22 02:29:01;;;;;;;11.10;3.20;;;5.00;99.90;;;;;;4996127;28;20209;-57
2022/11/22 02:31:41;;;;;;;19.60;3.10;;;5.00;99.90;;;;;;4981115;28;20591;-57
2022/11/22 02:34:09;;;;;;;15.77;3.07;;;5.00;99.90;;;;;;4975521;28;20194;-57
2022/11/22 02:36:42;;;;;;;9.37;2.43;;;5.10;99.90;;;;;;4971311;28;20191;-57
2022/11/22 02:39:12;;;;;;;6.60;2.63;;;5.10;99.90;;;;;;4998622;28;20211;-56
2022/11/22 02:41:43;;;;;;;10.10;2.83;;;5.10;99.90;;;;;;4974329;28;20197;-57
2022/11/22 02:44:12;;;;;;;12.03;3.20;;;5.10;99.90;;;;;;4973329;28;20198;-57
2022/11/22 02:46:47;;;;;;;12.57;2.90;;;5.00;99.90;;;;;;4975694;28;20203;-56
2022/11/22 02:49:18;;;;;;;9.90;3.00;;;5.00;99.90;;;;;;4979740;28;20653;-56
2022/11/22 02:51:46;;;;;;;13.83;3.50;;;4.90;99.90;;;;;;4985972;28;20662;-57
2022/11/22 02:54:15;;;;;;;6.70;2.80;;;5.00;99.90;;;;;;4993940;28;20208;-56
2022/11/22 02:56:46;;;;;;;9.27;2.67;;;5.00;99.90;;;;;;4972196;28;20194;-57
2022/11/22 02:59:14;;;;;;;13.03;2.73;;;4.90;99.90;;;;;;4971039;28;20226;-57
2022/11/22 03:01:44;;;;;;;8.33;2.70;;;4.80;99.90;;;;;;4973005;28;20338;-57
2022/11/22 03:04:23;;;;;;;13.03;2.30;;;4.80;99.90;;;;;;4975993;28;20462;-57
2022/11/22 03:06:54;;;;;;;13.53;2.80;;;4.80;99.90;;;;;;4992241;28;20195;-57
2022/11/22 03:09:26;;;;;;;5.80;2.30;;;4.80;99.90;;;;;;4994447;28;20197;-57
2022/11/22 03:11:59;;;;;;;9.57;2.70;;;4.80;99.90;;;;;;5017878;27;20223;-57
2022/11/22 03:14:27;;;;;;;8.00;2.47;;;4.80;99.90;;;;;;4989150;28;20574;-57
2022/11/22 03:16:55;;;;;;;10.57;2.53;;;4.80;99.90;;;;;;4993388;28;20202;-57
2022/11/22 03:19:27;;;;;;;12.80;2.53;;;4.80;99.90;;;;;;4976941;28;20241;-57
2022/11/22 03:21:56;;;;;;;12.97;2.53;;;4.80;99.90;;;;;;4978297;28;20542;-56
2022/11/22 03:24:24;;;;;;;7.50;2.37;;;4.70;99.90;;;;;;4971405;28;20229;-57
2022/11/22 03:26:52;;;;;;;6.83;2.50;;;4.70;99.90;;;;;;4990825;28;20199;-56
2022/11/22 03:29:22;;;;;;;8.70;2.27;;;4.70;99.90;;;;;;4975225;28;20515;-57
2022/11/22 03:31:50;;;;;;;11.87;2.83;;;4.70;99.90;;;;;;4976506;28;20577;-57
2022/11/22 03:34:18;;;;;;;8.30;2.50;;;4.80;99.90;;;;;;4972969;28;20200;-56
2022/11/22 03:36:47;;;;;;;11.53;3.10;;;4.80;99.90;;;;;;5058279;28;20729;-58
2022/11/22 03:39:15;;;;;;;11.60;2.30;;;4.80;99.90;;;;;;4971429;28;20203;-57
2022/11/22 03:41:43;;;;;;;12.07;2.80;;;4.80;99.90;;;;;;4980630;28;20202;-57
2022/11/22 03:44:12;;;;;;;6.90;2.40;;;4.80;99.90;;;;;;4977951;28;20206;-57
2022/11/22 03:46:41;;;;;;;5.03;2.90;;;4.90;99.90;;;;;;4987188;28;20207;-57
2022/11/22 03:49:11;;;;;;;8.83;3.10;;;4.90;99.90;;;;;;4981302;28;20582;-58
2022/11/22 03:51:39;;;;;;;8.40;3.23;;;4.90;99.90;;;;;;4989966;28;20642;-56
2022/11/22 03:54:08;;;;;;;7.63;2.20;;;4.90;99.90;;;;;;4979810;28;20195;-57
2022/11/22 03:56:36;;;;;;;8.07;2.63;;;5.00;99.90;;;;;;4976057;28;20680;-56
2022/11/22 03:59:04;;;;;;;8.53;2.87;;;5.00;99.90;;;;;;4980282;28;20555;-57
2022/11/22 04:01:33;;;;;;;13.23;2.60;;;5.10;99.90;;;;;;4980262;28;20215;-57
2022/11/22 04:04:02;;;;;;;6.63;2.47;;;5.10;99.90;;;;;;4986058;28;20708;-57
2022/11/22 04:06:31;;;;;;;7.03;2.30;;;5.20;99.90;;;;;;4981639;28;20673;-57
2022/11/22 04:08:59;;;;;;;21.00;3.17;;;5.20;99.90;;;;;;4984660;28;20202;-57
2022/11/22 04:11:28;;;;;;;6.07;2.40;;;5.30;99.90;;;;;;4977302;28;20214;-56
2022/11/22 04:16:42;;;;;;;8.20;2.40;;;5.30;99.90;;;;;;4983522;28;20293;-57
2022/11/22 04:19:11;;;;;;;9.40;2.93;;;5.30;99.90;;;;;;4981092;28;20257;-57
2022/11/22 04:21:39;;;;;;;10.80;2.90;;;5.30;99.90;;;;;;4996220;28;20226;-56
2022/11/22 04:26:56;;;;;;;18.47;3.17;;;5.40;99.90;;;;;;4974937;28;20253;-57
2022/11/22 04:29:24;;;;;;;10.73;2.63;;;5.40;99.90;;;;;;5022634;28;20203;-56
2022/11/22 04:34:42;;;;;;;8.37;3.23;;;5.40;99.90;;;;;;4985664;28;20190;-57
2022/11/22 04:37:10;;;;;;;7.60;2.50;;;5.40;99.90;;;;;;4980920;28;20191;-57
2022/11/22 04:39:38;;;;;;;4.57;2.67;;;5.40;99.90;;;;;;4981925;28;20202;-57
2022/11/22 04:44:53;;;;;;;4.87;2.37;;;5.40;99.90;;;;;;4986366;28;21478;-57
2022/11/22 04:52:53;;;;;;;7.70;2.67;;;5.30;99.90;;;;;;4978912;28;20784;-56
2022/11/22 04:55:22;;;;;;;8.87;2.63;;;5.30;99.90;;;;;;4982737;28;20202;-56
2022/11/22 04:57:50;;;;;;;9.53;2.60;;;5.20;99.90;;;;;;4977172;28;20218;-56
2022/11/22 05:00:27;;;;;;;12.33;4.10;;;5.20;99.90;;;;;;4982010;28;20213;-56
2022/11/22 05:03:08;;;;;;;5.63;2.53;;;5.10;99.90;;;;;;4975331;28;20203;-57
2022/11/22 05:05:40;;;;;;;10.93;2.80;;;5.10;99.90;;;;;;4976103;28;20196;-57
2022/11/22 05:08:09;;;;;;;8.30;2.60;;;5.10;99.90;;;;;;5001206;28;20199;-57
2022/11/22 05:13:22;;;;;;;10.67;2.37;;;5.00;99.90;;;;;;4979060;28;20210;-57
2022/11/22 05:15:51;;;;;;;9.90;2.50;;;5.00;99.90;;;;;;4979392;28;20223;-56
2022/11/22 05:18:20;;;;;;;9.13;3.10;;;5.00;99.90;;;;;;4979636;28;20207;-55
2022/11/22 05:20:50;;;;;;;12.37;2.80;;;5.00;99.90;;;;;;4980371;28;20231;-57
2022/11/22 05:26:06;;;;;;;11.17;2.50;;;5.10;99.90;;;;;;4982081;28;20210;-57
2022/11/22 05:28:36;;;;;;;12.00;2.57;;;5.20;99.90;;;;;;4985477;28;20195;-57
2022/11/22 05:31:09;;;;;;;7.67;2.47;;;5.20;99.90;;;;;;4988375;28;20196;-56
2022/11/22 05:33:39;;;;;;;6.47;2.43;;;5.20;99.90;;;;;;4991240;28;20205;-56
2022/11/22 05:36:09;;;;;;;13.77;2.67;;;5.30;99.90;;;;;;4992805;28;20195;-56
2022/11/22 05:38:38;;;;;;;6.83;2.40;;;5.30;99.90;;;;;;4977276;28;20203;-56
2022/11/22 05:41:08;;;;;;;8.10;2.63;;;5.30;99.90;;;;;;4982545;28;20208;-57
2022/11/22 05:43:37;;;;;;;7.47;2.60;;;5.40;99.90;;;;;;4989385;28;20200;-56
2022/11/22 05:46:07;;;;;;;11.50;2.67;;;5.30;99.90;;;;;;4998469;28;20600;-55
2022/11/22 05:48:36;;;;;;;11.07;2.40;;;5.30;99.90;;;;;;5010943;28;20199;-55
2022/11/22 05:51:05;;;;;;;10.30;2.90;;;5.40;99.90;;;;;;4980474;28;20331;-54
2022/11/22 05:53:36;;;;;;;11.33;2.87;;;5.40;99.90;;;;;;4978662;28;20197;-55
2022/11/22 05:56:06;;;;;;;8.57;2.40;;;5.50;99.90;;;;;;4995198;28;20203;-57
2022/11/22 05:58:35;;;;;;;6.83;2.87;;;5.50;99.90;;;;;;4978343;28;20207;-57
2022/11/22 06:01:04;;;;;;;8.97;2.70;;;5.50;99.90;;;;;;4978324;28;20207;-55
2022/11/22 06:03:33;;;;;;;6.40;2.47;;;5.50;99.90;;;;;;4982873;28;20657;-56
2022/11/22 06:06:01;;;;;;;8.27;2.93;;;5.50;99.90;;;;;;4984252;28;20388;-56
2022/11/22 06:08:31;;;;;;;5.97;3.20;;;5.50;99.90;;;;;;5011170;28;20203;-56
2022/11/22 06:11:06;;;;;;;8.40;2.70;;;5.60;99.90;;;;;;4980320;28;20340;-54
2022/11/22 06:13:35;;;;;;;6.67;3.17;;;5.60;99.90;;;;;;4978709;28;20213;-55
2022/11/22 06:16:05;;;;;;;10.70;2.90;;;5.60;99.90;;;;;;4989675;28;20255;-57
2022/11/22 06:18:34;;;;;;;6.57;3.00;;;5.70;99.90;;;;;;4973048;28;20644;-55
2022/11/22 06:21:06;;;;;;;7.53;2.70;;;5.70;99.90;;;;;;4980200;28;20239;-56
2022/11/22 06:23:34;;;;;;;10.20;2.80;;;5.60;99.90;;;;;;4974560;28;20668;-56
2022/11/22 06:26:06;;;;;;;13.80;3.20;;;5.70;99.90;;;;;;4979716;28;20195;-56
2022/11/22 06:28:38;;;;;;;9.40;2.90;;;5.70;99.90;;;;;;4975458;28;20207;-56
2022/11/22 06:31:08;;;;;;;9.87;2.50;;;5.70;99.90;;;;;;4994716;28;20196;-57
2022/11/22 06:33:36;;;;;;;9.17;2.93;;;5.70;99.90;;;;;;4985615;28;20678;-57
2022/11/22 06:36:06;;;;;;;6.70;3.27;;;5.70;99.90;;;;;;4986869;28;20197;-57
2022/11/22 06:38:35;;;;;;;6.77;2.37;;;5.80;99.90;;;;;;4982414;28;20210;-57
2022/11/22 06:41:06;;;;;;;3.57;2.40;;;5.80;99.90;;;;;;4994766;28;20260;-54
2022/11/22 06:43:37;;;;;;;8.23;2.50;;;5.80;99.90;;;;;;5011071;28;20202;-57
2022/11/22 06:46:12;;;;;;;7.60;2.73;;;5.80;99.90;;;;;;4993480;28;20221;-55
2022/11/22 06:48:42;;;;;;;9.80;3.10;;;5.80;99.90;;;;;;4981375;28;20198;-57
2022/11/22 06:51:12;;;;;;;8.03;3.07;;;5.80;99.90;;;;;;4980944;28;20195;-56
2022/11/22 06:53:41;;;;;;;5.03;3.13;;;5.80;99.90;;;;;;4972264;28;20196;-56
2022/11/22 06:56:18;;;;;;;7.70;2.77;;;5.80;99.90;;;;;;4977217;28;20195;-55
2022/11/22 06:58:47;;;;;;;6.17;2.57;;;5.80;99.90;;;;;;5007768;28;20191;-54
2022/11/22 07:01:18;;;;;;;5.70;2.90;;;5.80;99.90;;;;;;4980967;28;20230;-56
2022/11/22 07:03:47;;;;;;;18.33;3.33;;;5.80;99.90;;;;;;4986475;28;20992;-56
2022/11/22 07:06:17;;;;;;;7.40;3.60;;;5.80;99.90;;;;;;4977836;28;20649;-55
2022/11/22 07:08:46;;;;;;;6.63;2.83;;;5.80;99.90;;;;;;4975688;28;20204;-56
2022/11/22 07:11:17;;;;;;;6.13;3.07;;;5.80;99.90;;;;;;5023097;28;20562;-54
2022/11/22 07:13:47;;;;;;;7.40;2.80;;;5.90;99.90;;;;;;4979848;28;20218;-56
2022/11/22 07:16:18;;;;;;;9.60;2.90;;;5.90;99.90;;;;;;4981990;28;20211;-56
2022/11/22 07:18:47;;;;;;;11.43;3.50;;;5.90;99.90;;;;;;4992011;28;20191;-55
2022/11/22 07:21:17;;;;;;;6.53;2.93;;;5.90;99.90;;;;;;4992359;28;20203;-53
2022/11/22 07:23:47;;;;;;;9.43;3.00;;;5.90;99.90;;;;;;4981069;28;20210;-57
2022/11/22 07:26:18;;;;;;;10.60;2.83;;;5.90;99.90;;;;;;4983934;28;20203;-57
2022/11/22 07:28:48;;;;;;;9.80;2.73;;;6.00;99.90;;;;;;4985969;28;20199;-56
2022/11/22 07:31:17;;;;;;;8.13;3.23;;;6.00;99.90;;;;;;4984749;28;20550;-57
2022/11/22 07:33:47;;;;;;;5.93;2.77;;;5.90;99.90;;;;;;4982488;28;20199;-56
2022/11/22 07:36:17;;;;;;;11.80;3.33;;;6.00;99.90;;;;;;4985914;28;20221;-56
2022/11/22 07:38:46;;;;;;;5.00;3.30;;;6.00;99.90;;;;;;4977159;28;20210;-57
2022/11/22 07:41:18;;;;;;;4.17;3.13;;;6.10;99.90;;;;;;4979573;28;20572;-55
2022/11/22 07:43:46;;;;;;;7.93;3.00;;;6.10;99.90;;;;;;4972576;28;20546;-56
2022/11/22 07:46:21;;;;;;;14.70;3.00;;;6.10;99.90;;;;;;4984739;28;20207;-56
2022/11/22 07:48:50;;;;;;;8.60;2.93;;;6.10;99.90;;;;;;4975674;28;20183;-56
2022/11/22 07:51:19;;;;;;;9.97;2.73;;;6.10;99.90;;;;;;5016008;28;20199;-57
2022/11/22 07:53:47;;;;;;;8.40;3.17;;;6.10;99.90;;;;;;4975198;28;20201;-57
2022/11/22 07:56:17;;;;;;;5.03;3.27;;;6.10;99.90;;;;;;4999782;28;20199;-56
2022/11/22 07:58:45;;;;;;;8.07;2.50;;;6.20;99.90;;;;;;5002728;28;20203;-56
2022/11/22 08:01:15;;;;;;;2.53;2.20;;;6.30;99.90;;;;;;4981361;28;20673;-56
2022/11/22 08:03:44;;;;;;;6.13;2.80;;;6.20;99.90;;;;;;4985210;28;20211;-56
2022/11/22 08:06:13;;;;;;;3.73;2.77;;;6.30;99.90;;;;;;4982379;28;20277;-56
2022/11/22 08:08:43;;;;;;;9.30;3.00;;;6.30;99.90;;;;;;4987159;28;20212;-56
2022/11/22 08:11:12;;;;;;;8.00;2.77;;;6.30;99.90;;;;;;4988270;28;20288;-56
2022/11/22 08:13:43;;;;;;;6.60;2.37;;;6.30;99.90;;;;;;4986474;28;20199;-56
2022/11/22 08:16:15;;;;;;;8.30;3.07;;;6.30;99.90;;;;;;4980316;28;20235;-57
2022/11/22 08:18:47;;;;;;;5.97;2.70;;;6.30;99.90;;;;;;5006641;28;20201;-56
2022/11/22 08:21:18;;;;;;;5.50;2.47;;;6.40;99.90;;;;;;4985663;28;20238;-56
2022/11/22 08:23:48;;;;;;;9.67;2.83;;;6.40;99.90;;;;;;4981607;28;20299;-56
2022/11/22 08:26:19;;;;;;;8.37;2.70;;;6.40;99.90;;;;;;4993043;28;20198;-57
2022/11/22 08:28:49;;;;;;;4.23;2.37;;;6.40;99.90;;;;;;4982495;28;20207;-57
2022/11/22 08:31:19;;;;;;;5.77;2.73;;;6.40;99.90;;;;;;4985519;28;20202;-56
2022/11/22 08:33:48;;;;;;;3.53;2.10;;;6.50;99.90;;;;;;4987024;28;20202;-57
2022/11/22 08:36:16;;;;;;;6.10;2.70;;;6.60;99.90;;;;;;4984964;28;20198;-57
2022/11/22 08:38:45;;;;;;;3.07;2.73;;;6.60;99.90;;;;;;4985126;28;20203;-58
2022/11/22 08:41:13;;;;;;;5.23;2.40;;;6.60;99.90;;;;;;4977603;28;20195;-56
2022/11/22 08:43:42;;;;;;;7.03;2.47;;;6.70;99.90;;;;;;4980949;28;20786;-56
2022/11/22 08:46:12;;;;;;;5.13;2.50;;;6.70;99.90;;;;;;4982715;28;20207;-57
2022/11/22 08:48:40;;;;;;;6.80;2.80;;;6.70;99.90;;;;;;4978611;28;20198;-56
2022/11/22 08:51:10;;;;;;;5.77;2.40;;;6.70;99.90;;;;;;4981805;28;21354;-57
2022/11/22 08:53:40;;;;;;;7.23;2.77;;;6.70;99.90;;;;;;4979226;28;20195;-57
2022/11/22 08:56:12;;;;;;;10.33;2.97;;;6.70;99.90;;;;;;4979148;28;20201;-56
2022/11/22 08:58:41;;;;;;;7.30;2.80;;;6.80;99.90;;;;;;4997364;28;20680;-56
2022/11/22 09:01:13;;;;;;;6.63;2.63;;;6.80;99.90;;;;;;5000752;28;20531;-56
2022/11/22 09:03:42;;;;;;;8.10;3.30;;;6.80;99.90;;;;;;4994462;28;20219;-56
2022/11/22 09:06:12;;;;;;;4.13;2.60;;;6.80;99.90;;;;;;4985455;28;20195;-57
2022/11/22 09:09:03;;;;;;;8.60;2.87;;;6.80;99.90;;;;;;4979820;28;20204;-56
2022/11/22 09:11:51;;;;;;;6.73;2.67;;;6.80;99.90;;;;;;4983990;28;20206;-57
2022/11/22 09:14:20;;;;;;;11.17;3.07;;;6.80;99.90;;;;;;4989436;28;20221;-57
2022/11/22 09:16:50;;;;;;;7.17;3.03;;;6.80;99.90;;;;;;4968442;28;20214;-57
2022/11/22 09:19:18;;;;;;;6.60;2.60;;;6.80;99.90;;;;;;5012855;28;20227;-55
2022/11/22 09:21:47;;;;;;;5.30;3.00;;;6.90;99.90;;;;;;4985330;28;20211;-55
2022/11/22 09:24:15;;;;;;;8.57;3.10;;;6.90;99.90;;;;;;4991048;28;20222;-56
2022/11/22 09:26:43;;;;;;;7.33;2.90;;;6.90;99.90;;;;;;4983309;28;20198;-57
2022/11/22 09:29:13;;;;;;;8.27;2.97;;;7.00;99.90;;;;;;4977549;28;20206;-57
2022/11/22 09:31:44;;;;;;;6.73;2.90;;;6.90;99.90;;;;;;4983714;28;20192;-57
2022/11/22 09:34:14;;;;;;;6.13;2.57;;;7.00;99.90;;;;;;4994652;28;20202;-57
2022/11/22 09:36:43;;;;;;;5.00;2.97;;;7.00;99.90;;;;;;4983777;28;20195;-56
2022/11/22 09:39:11;;;;;;;6.93;2.90;;;7.00;99.90;;;;;;4981356;28;20195;-57
2022/11/22 09:42:17;;;;;;;5.57;2.70;;;7.10;99.90;;;;;;4978495;28;20200;-57
2022/11/22 09:45:10;;;;;;;4.20;2.70;;;7.10;99.90;;;;;;4979014;28;20199;-56
2022/11/22 09:47:47;;;;;;;7.43;2.83;;;7.20;99.90;;;;;;4979491;28;20212;-56
2022/11/22 09:50:26;;;;;;;4.10;3.03;;;7.30;99.90;;;;;;4981740;28;20212;-55
2022/11/22 09:52:59;;;;;;;8.30;2.53;;;7.30;99.90;;;;;;4985916;28;20190;-56
2022/11/22 09:55:33;;;;;;;6.17;2.63;;;7.30;99.90;;;;;;4979104;28;20637;-56
2022/11/22 09:58:09;;;;;;;4.57;2.67;;;7.30;99.90;;;;;;4975742;28;20206;-56
2022/11/22 10:00:39;;;;;;;2.27;2.17;;;7.30;99.90;;;;;;4975432;28;20333;-56
2022/11/22 10:03:14;;;;;;;4.40;2.20;;;7.40;99.90;;;;;;4987375;28;20210;-57
2022/11/22 10:05:50;;;;;;;5.53;2.27;;;7.40;99.90;;;;;;4981302;28;20733;-57
2022/11/22 10:08:32;;;;;;;3.70;2.57;;;7.40;99.90;;;;;;4979084;28;20672;-57
2022/11/22 10:11:03;;;;;;;5.10;2.20;;;7.40;99.90;;;;;;4992160;28;20208;-57
2022/11/22 10:13:36;;;;;;;3.03;2.20;;;7.40;99.90;;;;;;4981843;28;20191;-57
2022/11/22 10:16:13;;;;;;;8.50;2.27;;;7.50;99.90;;;;;;4982521;28;20214;-57
2022/11/22 10:18:48;;;;;;;2.97;2.43;;;7.50;99.90;;;;;;5006448;28;20195;-56
2022/11/22 10:21:19;;;;;;;4.00;2.40;;;7.50;99.90;;;;;;4979241;28;20210;-57
2022/11/22 10:23:48;;;;;;;4.67;2.23;;;7.60;99.90;;;;;;4980101;28;20215;-56
2022/11/22 10:26:23;;;;;;;6.20;2.13;;;7.60;99.90;;;;;;4974628;28;20214;-57
2022/11/22 10:29:08;;;;;;;3.87;2.00;;;7.50;99.90;;;;;;4985061;28;20199;-56
2022/11/22 10:31:44;;;;;;;2.30;2.10;;;7.50;99.90;;;;;;4980159;28;20207;-56
2022/11/22 10:34:20;;;;;;;3.07;2.00;;;7.50;99.90;;;;;;4976301;28;20253;-57
2022/11/22 10:36:56;;;;;;;5.90;2.50;;;7.60;99.90;;;;;;4978644;28;20198;-56
2022/11/22 10:39:50;;;;;;;5.73;2.53;;;7.60;99.90;;;;;;4978404;28;20601;-56
2022/11/22 10:42:35;;;;;;;8.63;2.23;;;7.60;99.90;;;;;;4982682;28;20203;-56
2022/11/22 10:45:14;;;;;;;4.73;1.80;;;7.60;99.90;;;;;;4983156;28;20215;-55
2022/11/22 10:47:56;;;;;;;2.53;1.70;;;7.60;99.90;;;;;;4974215;28;20198;-56
2022/11/22 10:50:29;;;;;;;1.93;1.40;;;7.60;99.90;;;;;;4977570;28;20211;-57
2022/11/22 10:53:09;;;;;;;4.07;2.10;;;7.50;99.90;;;;;;4976535;28;20811;-56
2022/11/22 10:55:55;;;;;;;2.93;1.97;;;7.50;99.90;;;;;;4980222;28;20203;-57
2022/11/22 10:58:32;;;;;;;2.77;2.33;;;7.40;99.90;;;;;;4975219;28;20203;-56
2022/11/22 11:01:13;;;;;;;9.67;2.20;;;7.30;99.90;;;;;;4985111;28;20202;-56
2022/11/22 11:03:44;;;;;;;2.87;1.93;;;7.30;99.90;;;;;;4979382;28;20677;-57
2022/11/22 11:06:18;;;;;;;4.73;1.90;;;7.30;99.90;;;;;;4997501;28;20252;-56
2022/11/22 11:09:10;;;;;;;4.53;2.27;;;7.40;99.90;;;;;;4994258;28;20634;-56
2022/11/22 11:12:06;;;;;;;3.30;2.20;;;7.40;99.90;;;;;;4971773;28;20207;-57
2022/11/22 11:14:38;;;;;;;5.27;2.00;;;7.50;99.90;;;;;;4983968;28;20736;-55
2022/11/22 11:17:07;;;;;;;2.20;1.70;;;7.50;99.90;;;;;;4977165;28;20209;-56
2022/11/22 11:19:39;;;;;;;3.90;2.20;;;7.50;99.90;;;;;;4984700;28;20254;-56
2022/11/22 11:22:20;;;;;;;3.50;1.80;;;7.50;99.90;;;;;;4977037;28;20203;-56
2022/11/22 11:25:29;;;;;;;2.03;1.90;;;7.50;99.90;;;;;;4981124;28;20690;-57
2022/11/22 11:28:02;;;;;;;1.60;1.60;;;7.60;99.90;;;;;;4979833;28;20289;-57
2022/11/22 11:30:38;;;;;;;2.07;1.90;;;7.60;99.90;;;;;;4977170;28;20196;-57
2022/11/22 11:33:20;;;;;;;1.87;1.70;;;7.80;99.90;;;;;;4977975;28;20206;-56
2022/11/22 11:35:54;;;;;;;1.70;1.60;;;7.90;99.90;;;;;;5010015;28;20227;-57
2022/11/22 11:38:34;;;;;;;3.60;1.60;;;7.90;99.90;;;;;;4972713;28;20202;-56
2022/11/22 11:41:23;;;;;;;1.60;1.60;;;8.10;99.90;;;;;;5011868;28;20226;-57
2022/11/22 11:43:53;;;;;;;2.00;1.90;;;8.10;99.90;;;;;;4978043;28;20253;-57
2022/11/22 11:46:23;;;;;;;3.00;2.03;;;8.20;99.90;;;;;;4979231;28;20217;-55
2022/11/22 11:48:52;;;;;;;1.37;1.37;;;8.20;99.90;;;;;;4979321;28;20210;-56
2022/11/22 11:51:31;;;;;;;2.60;1.70;;;8.20;99.90;;;;;;4983172;28;20248;-57
2022/11/22 11:54:05;;;;;;;1.67;1.60;;;8.30;99.90;;;;;;4977311;28;20202;-56
2022/11/22 11:56:50;;;;;;;1.57;1.50;;;8.30;99.90;;;;;;4984357;28;20286;-56
2022/11/22 11:59:23;;;;;;;1.53;1.50;;;8.40;99.90;;;;;;4977532;28;20206;-57
2022/11/22 12:01:58;;;;;;;1.43;1.43;;;8.40;99.90;;;;;;4976959;28;20693;-57
2022/11/22 12:04:29;;;;;;;2.00;1.50;;;8.50;99.90;;;;;;4980334;28;20740;-56
2022/11/22 12:07:03;;;;;;;1.80;1.70;;;8.50;99.90;;;;;;4991584;28;20645;-57
2022/11/22 12:09:34;;;;;;;1.50;1.50;;;8.60;99.90;;;;;;4983003;28;20202;-56
2022/11/22 12:12:14;;;;;;;1.53;1.53;;;8.60;99.90;;;;;;5017235;28;20192;-56
2022/11/22 12:14:50;;;;;;;1.60;1.30;;;8.70;99.90;;;;;;4976157;28;20615;-57
2022/11/22 12:17:46;;;;;;;1.60;1.50;;;8.80;99.90;;;;;;4988625;28;20615;-57
2022/11/22 12:20:20;;;;;;;1.60;1.50;;;8.80;99.90;;;;;;4983148;28;20234;-57
2022/11/22 12:23:00;;;;;;;2.80;1.50;;;8.80;99.90;;;;;;4982691;28;20203;-55
2022/11/22 12:25:33;;;;;;;3.03;1.70;;;8.70;99.90;;;;;;4994727;28;20218;-55
2022/11/22 12:28:20;;;;;;;1.73;1.50;;;8.70;99.90;;;;;;5008166;28;20213;-56
2022/11/22 12:30:55;;;;;;;1.40;1.40;;;8.80;99.90;;;;;;4998434;28;20195;-57
2022/11/22 12:33:30;;;;;;;1.60;1.50;;;8.80;99.90;;;;;;4992865;28;20194;-57
2022/11/22 12:36:00;;;;;;;1.97;1.43;;;9.00;99.90;;;;;;5006547;28;20272;-56
2022/11/22 12:38:33;;;;;;;1.47;1.37;;;8.90;99.90;;;;;;4984644;28;20195;-57
2022/11/22 12:41:04;;;;;;;1.37;1.30;;;8.90;99.90;;;;;;4988735;28;20588;-56
2022/11/22 12:43:41;;;;;;;2.87;2.40;;;8.90;99.90;;;;;;4991161;28;20213;-55
2022/11/22 12:46:13;;;;;;;3.43;3.23;;;8.90;99.90;;;;;;4988711;28;20657;-57
2022/11/22 12:48:48;;;;;;;11.57;4.70;;;8.80;99.90;;;;;;4989328;28;20210;-56
2022/11/22 12:51:24;;;;;;;12.63;6.97;;;8.90;99.90;;;;;;4979759;28;20285;-57
2022/11/22 12:53:56;;;;;;;47.47;25.30;;;8.90;99.90;;;;;;4978513;28;20203;-57
2022/11/22 12:56:28;;;;;;;13.13;7.83;;;9.00;99.90;;;;;;4990903;28;20293;-57
2022/11/22 12:59:08;;;;;;;16.37;8.90;;;9.00;99.90;;;;;;4997377;28;20221;-57
2022/11/22 13:01:49;;;;;;;17.93;12.63;;;9.10;99.90;;;;;;4996517;28;20203;-57
2022/11/22 13:04:25;;;;;;;12.70;8.93;;;9.00;99.90;;;;;;4962727;28;20272;-57
2022/11/22 13:06:56;;;;;;;9.33;7.90;;;9.00;99.90;;;;;;4987080;28;20209;-57
2022/11/22 13:09:30;;;;;;;14.90;12.33;;;9.00;99.90;;;;;;4988492;28;20201;-57
2022/11/22 13:12:03;;;;;;;3.67;3.37;;;9.10;99.90;;;;;;4980090;28;20199;-57
2022/11/22 13:14:36;;;;;;;3.80;3.23;;;9.10;99.90;;;;;;4984949;28;20227;-57
2022/11/22 13:17:07;;;;;;;5.27;4.90;;;9.30;99.90;;;;;;4989088;28;20237;-56
2022/11/22 13:19:42;;;;;;;9.17;8.27;;;9.40;99.90;;;;;;5003760;28;20596;-57
2022/11/22 13:22:20;;;;;;;3.43;3.13;;;9.50;99.90;;;;;;4983035;28;20202;-56
2022/11/22 13:25:05;;;;;;;3.60;3.30;;;9.70;99.90;;;;;;4981006;28;20218;-57
2022/11/22 13:27:37;;;;;;;3.53;2.33;;;9.60;99.90;;;;;;4984201;28;20198;-57
2022/11/22 13:30:18;;;;;;;3.40;3.20;;;9.60;99.90;;;;;;4995516;28;20195;-57
2022/11/22 13:32:51;;;;;;;4.93;4.40;;;9.80;99.90;;;;;;5016131;28;20190;-57
2022/11/22 13:35:26;;;;;;;6.33;5.83;;;9.80;99.90;;;;;;4982088;28;20194;-56
2022/11/22 13:37:57;;;;;;;2.97;2.80;;;9.80;99.90;;;;;;4979054;28;20562;-55
2022/11/22 13:40:29;;;;;;;5.53;5.07;;;9.80;99.90;;;;;;4988450;28;20227;-57